ECP weather

Northwest Florida Beaches International Airport
Panama City Beach, Florida, United States

Public forecast

Using degrees Fahrenheit for public forecast. Weather courtesy of forecast.io.

Current aviation weather report (METAR) for Northwest Florida Beaches International Airport

Retrieved 2019/10/14 04:42 UTC (0 seconds ago):

KECP 140442Z AUTO 36004KT 10SM BKN023 BKN028 BKN043 24/21 A3004 RMK AO2 T02440206

Aviation forecast (TAF) for Northwest Florida Beaches International Airport

Retrieved 2019-10-14 00:30 UTC (4 hours ago):

TAF KECP 132327Z 1400/1424 19006KT P6SM SCT040 FM140400 06006KT P6SM BKN060 FM141900 20006KT P6SM VCSH SCT050 BKN070